Time;durP1;ratioP1;P1;durP2;ratioP2;P2;SDS_P1;SDS_P2;PMS_P1;PMS_P2;Temp;Humidity;BMP_temperature;BMP_pressure;BME280_temperature;BME280_humidity;BME280_pressure;Samples;Min_cycle;Max_cycle;Signal;HPM_P1;HPM_P2
2022/11/05 00:09:34;;;;;;;4.82;1.60;;;;;14.40;101287.00;;;;5026007;28;20210;-77
2022/11/05 00:17:34;;;;;;;3.60;2.15;;;;;14.30;101294.00;;;;5052670;28;20213;-77
2022/11/05 00:20:02;;;;;;;4.38;2.38;;;;;14.20;101303.00;;;;5052187;28;20203;-77
2022/11/05 00:25:16;;;;;;;2.63;2.35;;;;;14.20;101304.00;;;;5051714;28;20292;-77
2022/11/05 00:27:48;;;;;;;3.65;2.38;;;;;14.10;101311.00;;;;5049360;28;20231;-77
2022/11/05 00:30:18;;;;;;;5.22;2.38;;;;;14.10;101316.00;;;;5048939;28;20223;-77
2022/11/05 00:32:47;;;;;;;4.07;2.60;;;;;14.10;101318.00;;;;5052111;28;20195;-77
2022/11/05 00:35:14;;;;;;;3.80;2.28;;;;;14.00;101330.00;;;;5048640;28;20231;-77
2022/11/05 00:37:43;;;;;;;2.72;2.10;;;;;14.00;101328.00;;;;5051858;28;20206;-77
2022/11/05 00:40:13;;;;;;;3.67;2.40;;;;;14.00;101328.00;;;;5051510;28;20195;-76
2022/11/05 00:45:25;;;;;;;3.47;2.55;;;;;13.90;101331.00;;;;5021449;28;20263;-77
2022/11/05 00:50:38;;;;;;;3.67;2.47;;;;;13.80;101339.00;;;;5052293;28;20253;-76
2022/11/05 00:53:07;;;;;;;3.20;2.65;;;;;13.70;101345.00;;;;5040110;28;21364;-77
2022/11/05 00:55:37;;;;;;;3.97;2.72;;;;;13.70;101345.00;;;;5052499;28;20669;-77
2022/11/05 00:58:06;;;;;;;3.85;2.47;;;;;13.70;101337.00;;;;5051891;28;20199;-77
2022/11/05 01:00:35;;;;;;;3.72;2.83;;;;;13.60;101346.00;;;;5058494;28;20195;-77
2022/11/05 01:03:05;;;;;;;3.13;2.08;;;;;13.60;101342.00;;;;5058775;28;20199;-77
2022/11/05 01:05:34;;;;;;;2.85;2.28;;;;;13.60;101358.00;;;;5051819;28;20191;-77
2022/11/05 01:08:02;;;;;;;3.58;2.40;;;;;13.50;101349.00;;;;5051435;28;21002;-77
2022/11/05 01:10:31;;;;;;;4.55;1.73;;;;;13.50;101359.00;;;;5060778;28;20207;-76
2022/11/05 01:12:58;;;;;;;1.77;1.35;;;;;13.40;101350.00;;;;5060154;28;20544;-77
2022/11/05 01:15:26;;;;;;;2.03;1.20;;;;;13.40;101346.00;;;;5047770;28;20199;-77
2022/11/05 01:17:53;;;;;;;1.73;1.10;;;;;13.40;101356.00;;;;5047832;28;20692;-77
2022/11/05 01:20:20;;;;;;;2.55;1.20;;;;;13.30;101350.00;;;;5051757;28;20206;-77
2022/11/05 01:22:48;;;;;;;2.67;1.42;;;;;13.30;101359.00;;;;5058239;28;20207;-77
2022/11/05 01:25:15;;;;;;;2.85;1.60;;;;;13.30;101361.00;;;;5055323;28;20214;-77
2022/11/05 01:27:44;;;;;;;3.28;1.73;;;;;13.20;101365.00;;;;5066990;28;20218;-77
2022/11/05 01:30:12;;;;;;;2.95;0.95;;;;;13.20;101375.00;;;;5056059;28;20198;-76
2022/11/05 01:32:40;;;;;;;2.35;1.30;;;;;13.20;101372.00;;;;5047828;28;20192;-77
2022/11/05 01:35:10;;;;;;;1.63;1.10;;;;;13.10;101366.00;;;;5055300;28;20231;-77
2022/11/05 01:37:37;;;;;;;3.55;1.13;;;;;13.10;101362.00;;;;5062862;28;20199;-77
2022/11/05 01:40:06;;;;;;;3.15;1.20;;;;;13.10;101371.00;;;;5061407;28;20681;-76
2022/11/05 01:42:34;;;;;;;3.80;1.08;;;;;13.00;101372.00;;;;5050434;28;20215;-76
2022/11/05 01:45:16;;;;;;;1.92;1.10;;;;;12.90;101369.00;;;;5055356;28;20214;-76
2022/11/05 01:47:58;;;;;;;1.75;1.33;;;;;12.80;101367.00;;;;5051346;28;20223;-77
2022/11/05 01:50:41;;;;;;;4.35;1.70;;;;;12.80;101365.00;;;;5059036;28;20218;-77
2022/11/05 01:53:24;;;;;;;2.05;1.20;;;;;12.80;101368.00;;;;5053023;28;20248;-76
2022/11/05 01:55:57;;;;;;;2.35;1.25;;;;;12.80;101368.00;;;;5056629;28;20191;-77
2022/11/05 01:58:32;;;;;;;1.77;0.88;;;;;12.80;101362.00;;;;5051523;28;20760;-77
2022/11/05 02:01:01;;;;;;;2.17;1.17;;;;;12.80;101365.00;;;;5063801;28;20203;-76
2022/11/05 02:03:29;;;;;;;2.47;1.13;;;;;12.70;101362.00;;;;5056314;28;20379;-76
2022/11/05 02:05:58;;;;;;;2.22;1.10;;;;;12.70;101360.00;;;;5058328;28;20195;-77
2022/11/05 02:08:36;;;;;;;1.80;1.33;;;;;12.70;101356.00;;;;5046642;28;20235;-76
2022/11/05 02:11:04;;;;;;;3.53;1.33;;;;;12.70;101347.00;;;;5048314;28;20200;-77
2022/11/05 02:13:31;;;;;;;3.45;1.60;;;;;12.70;101358.00;;;;5045635;28;20204;-77
2022/11/05 02:16:08;;;;;;;2.10;1.65;;;;;12.60;101361.00;;;;5053310;28;20206;-77
2022/11/05 02:18:46;;;;;;;4.53;1.95;;;;;12.50;101355.00;;;;5053318;28;20753;-76
2022/11/05 02:21:43;;;;;;;2.53;1.40;;;;;12.50;101356.00;;;;5050539;28;20187;-77
2022/11/05 02:24:41;;;;;;;1.92;1.52;;;;;12.40;101357.00;;;;5062946;28;20558;-77
2022/11/05 02:27:19;;;;;;;2.00;1.35;;;;;12.50;101350.00;;;;5061779;28;20219;-76
2022/11/05 02:30:07;;;;;;;4.78;2.15;;;;;12.40;101359.00;;;;5047839;28;20212;-77
2022/11/05 02:33:04;;;;;;;2.47;1.83;;;;;12.40;101359.00;;;;5030021;28;20250;-76
2022/11/05 02:35:49;;;;;;;3.67;1.92;;;;;12.30;101348.00;;;;5068209;28;20233;-77
2022/11/05 02:38:31;;;;;;;2.50;2.03;;;;;12.40;101349.00;;;;5051560;28;20223;-77
2022/11/05 02:41:06;;;;;;;3.80;2.03;;;;;12.40;101358.00;;;;5065023;28;20218;-77
2022/11/05 02:43:45;;;;;;;2.33;1.90;;;;;12.40;101343.00;;;;5064316;28;20206;-77
2022/11/05 02:46:25;;;;;;;2.10;1.90;;;;;12.30;101333.00;;;;5058459;28;20237;-77
2022/11/05 02:48:58;;;;;;;2.80;1.70;;;;;12.30;101335.00;;;;5053978;28;20202;-77
2022/11/05 02:51:35;;;;;;;2.70;1.58;;;;;12.30;101341.00;;;;5056611;28;20203;-76
2022/11/05 02:54:11;;;;;;;2.50;1.55;;;;;12.30;101329.00;;;;5051260;28;20202;-76
2022/11/05 02:56:42;;;;;;;2.33;1.33;;;;;12.30;101338.00;;;;5050940;28;20198;-77
2022/11/05 02:59:09;;;;;;;4.82;1.60;;;;;12.30;101335.00;;;;5065421;28;20596;-77
2022/11/05 03:01:37;;;;;;;1.75;1.40;;;;;12.40;101338.00;;;;5070836;28;20202;-76
2022/11/05 03:04:09;;;;;;;1.83;1.40;;;;;12.30;101333.00;;;;5050915;28;20200;-77
2022/11/05 03:06:56;;;;;;;2.58;1.55;;;;;12.30;101339.00;;;;5064463;28;20199;-77
2022/11/05 03:09:38;;;;;;;2.88;1.60;;;;;12.30;101344.00;;;;5067871;28;20199;-77
2022/11/05 03:12:15;;;;;;;2.22;1.58;;;;;12.30;101339.00;;;;5054311;28;20191;-77
2022/11/05 03:14:48;;;;;;;3.00;1.38;;;;;12.30;101346.00;;;;5067076;28;20207;-77
2022/11/05 03:17:26;;;;;;;1.50;1.15;;;;;12.30;101341.00;;;;5067440;28;20268;-77
2022/11/05 03:20:04;;;;;;;1.25;1.15;;;;;12.30;101347.00;;;;5049867;28;21677;-77
2022/11/05 03:22:38;;;;;;;2.22;1.25;;;;;12.30;101356.00;;;;5051402;28;20199;-76
2022/11/05 03:25:12;;;;;;;2.65;1.27;;;;;12.30;101348.00;;;;5058047;28;20206;-77
2022/11/05 03:27:44;;;;;;;2.15;1.63;;;;;12.20;101351.00;;;;5063636;28;20204;-76
2022/11/05 03:30:14;;;;;;;2.67;1.48;;;;;12.30;101352.00;;;;5056076;28;20203;-76
2022/11/05 03:32:45;;;;;;;3.72;1.55;;;;;12.20;101352.00;;;;5053397;28;20199;-77
2022/11/05 03:35:16;;;;;;;1.60;1.15;;;;;12.20;101350.00;;;;5056352;28;20727;-76
2022/11/05 03:37:48;;;;;;;4.35;1.25;;;;;12.20;101344.00;;;;5068828;28;20231;-76
2022/11/05 03:40:18;;;;;;;2.28;1.38;;;;;12.20;101358.00;;;;5056589;28;20198;-77
2022/11/05 03:42:49;;;;;;;2.17;1.30;;;;;12.20;101352.00;;;;5056394;28;20206;-77
2022/11/05 03:45:19;;;;;;;2.40;1.58;;;;;12.20;101356.00;;;;5064420;28;20392;-77
2022/11/05 03:47:50;;;;;;;1.77;1.42;;;;;12.20;101356.00;;;;5062442;28;20289;-77
2022/11/05 03:50:23;;;;;;;1.52;1.33;;;;;12.10;101351.00;;;;5062788;28;20203;-77
2022/11/05 03:52:53;;;;;;;2.78;1.60;;;;;12.10;101358.00;;;;5057640;28;20203;-76
2022/11/05 03:55:25;;;;;;;4.75;1.88;;;;;12.10;101363.00;;;;5058084;28;20202;-76
2022/11/05 03:57:55;;;;;;;2.25;1.13;;;;;12.10;101363.00;;;;5061880;28;20230;-76
2022/11/05 04:00:23;;;;;;;1.95;1.35;;;;;12.10;101367.00;;;;5067631;28;20206;-76
2022/11/05 04:02:51;;;;;;;1.85;1.35;;;;;12.10;101359.00;;;;5068958;28;20206;-76
2022/11/05 04:05:20;;;;;;;2.38;1.33;;;;;12.00;101365.00;;;;5068079;28;20191;-76
2022/11/05 04:13:26;;;;;;;2.50;1.23;;;;;12.00;101374.00;;;;5068885;28;20241;-76
2022/11/05 04:18:40;;;;;;;1.58;1.20;;;;;12.00;101382.00;;;;5066458;28;20299;-77
2022/11/05 04:24:10;;;;;;;3.38;1.70;;;;;12.00;101382.00;;;;5051007;28;20203;-77
2022/11/05 04:26:38;;;;;;;3.53;1.38;;;;;12.00;101382.00;;;;5055695;28;20199;-77
2022/11/05 04:31:51;;;;;;;2.88;1.48;;;;;12.00;101371.00;;;;5049645;28;20199;-77
2022/11/05 04:34:20;;;;;;;2.60;1.60;;;;;12.00;101382.00;;;;5052371;28;20235;-76
2022/11/05 04:36:49;;;;;;;2.88;1.40;;;;;12.10;101385.00;;;;5045703;28;20212;-77
2022/11/05 04:39:17;;;;;;;3.13;1.63;;;;;12.10;101388.00;;;;5050932;28;20227;-77
2022/11/05 04:41:46;;;;;;;2.15;1.70;;;;;12.10;101381.00;;;;5050168;28;20545;-77
2022/11/05 04:44:14;;;;;;;1.98;1.52;;;;;12.10;101386.00;;;;5050314;28;20199;-77
2022/11/05 04:46:41;;;;;;;3.05;1.67;;;;;12.20;101388.00;;;;5051472;28;20572;-77
2022/11/05 04:49:08;;;;;;;2.20;1.70;;;;;12.20;101381.00;;;;5050669;28;20191;-77
2022/11/05 04:51:36;;;;;;;2.25;1.65;;;;;12.20;101378.00;;;;5053572;28;20187;-77
2022/11/05 04:54:05;;;;;;;1.85;1.58;;;;;12.20;101378.00;;;;5049873;28;20787;-77
2022/11/05 04:56:32;;;;;;;2.53;1.88;;;;;12.20;101375.00;;;;5049113;28;20200;-77
2022/11/05 04:58:59;;;;;;;2.67;1.85;;;;;12.30;101374.00;;;;5050321;28;20227;-77
2022/11/05 05:01:26;;;;;;;2.30;1.92;;;;;12.30;101380.00;;;;5047066;28;20214;-77
2022/11/05 05:03:55;;;;;;;3.60;1.73;;;;;12.30;101389.00;;;;5049296;28;20199;-77
2022/11/05 05:06:22;;;;;;;2.35;1.73;;;;;12.40;101387.00;;;;5050907;28;20195;-77
2022/11/05 05:08:51;;;;;;;2.22;1.67;;;;;12.40;101386.00;;;;5049936;28;20227;-77
2022/11/05 05:11:21;;;;;;;3.75;1.85;;;;;12.40;101387.00;;;;5050089;28;20542;-77
2022/11/05 05:13:49;;;;;;;6.05;2.05;;;;;12.40;101394.00;;;;5045974;28;20199;-77
2022/11/05 05:16:19;;;;;;;2.88;1.80;;;;;12.50;101393.00;;;;5048862;28;20213;-77
2022/11/05 05:18:47;;;;;;;2.47;1.63;;;;;12.50;101399.00;;;;5048097;28;20235;-77
2022/11/05 05:24:00;;;;;;;3.97;2.10;;;;;12.60;101395.00;;;;5057505;28;20733;-77
2022/11/05 05:26:29;;;;;;;4.75;2.10;;;;;12.60;101396.00;;;;5064106;28;20195;-77
2022/11/05 05:28:56;;;;;;;2.00;1.67;;;;;12.60;101385.00;;;;5053620;28;20192;-77
2022/11/05 05:31:24;;;;;;;4.43;2.63;;;;;12.60;101378.00;;;;5054715;28;20209;-77
2022/11/05 05:33:53;;;;;;;2.95;1.73;;;;;12.60;101388.00;;;;5053786;28;20238;-77
2022/11/05 05:36:21;;;;;;;2.95;1.80;;;;;12.60;101399.00;;;;5048084;28;20202;-77
2022/11/05 05:38:48;;;;;;;2.22;1.80;;;;;12.60;101395.00;;;;5048502;28;20243;-77
2022/11/05 05:41:16;;;;;;;2.00;1.80;;;;;12.60;101393.00;;;;5045869;28;20208;-77
2022/11/05 05:43:46;;;;;;;2.63;2.00;;;;;12.60;101406.00;;;;5043495;28;20211;-77
2022/11/05 05:46:15;;;;;;;2.25;1.75;;;;;12.70;101403.00;;;;5041260;28;20200;-77
2022/11/05 05:48:43;;;;;;;2.30;1.90;;;;;12.70;101402.00;;;;5042094;28;22147;-77
2022/11/05 05:51:11;;;;;;;2.60;1.88;;;;;12.70;101399.00;;;;5047340;28;20203;-77
2022/11/05 05:53:39;;;;;;;3.40;1.67;;;;;12.70;101407.00;;;;5060318;28;20687;-77
2022/11/05 05:56:07;;;;;;;3.00;2.10;;;;;12.70;101402.00;;;;5051467;28;20195;-77
2022/11/05 05:58:36;;;;;;;2.53;1.85;;;;;12.70;101404.00;;;;5042622;28;20262;-77
2022/11/05 06:01:06;;;;;;;4.13;1.92;;;;;12.70;101410.00;;;;5041043;28;20200;-77
2022/11/05 06:03:34;;;;;;;2.13;1.73;;;;;12.70;101412.00;;;;5043548;28;20200;-77
2022/11/05 06:06:03;;;;;;;2.35;2.10;;;;;12.70;101420.00;;;;5042278;28;20740;-77
2022/11/05 06:08:31;;;;;;;2.08;1.80;;;;;12.70;101417.00;;;;5043004;28;20200;-77
2022/11/05 06:10:58;;;;;;;2.10;1.83;;;;;12.80;101414.00;;;;5050066;28;20188;-76
2022/11/05 06:13:26;;;;;;;2.03;1.60;;;;;12.70;101427.00;;;;5045387;28;20207;-77
2022/11/05 06:15:54;;;;;;;2.17;1.98;;;;;12.70;101423.00;;;;5047018;28;20203;-77
2022/11/05 06:18:22;;;;;;;4.18;2.08;;;;;12.70;101431.00;;;;5045916;28;20230;-77
2022/11/05 06:20:49;;;;;;;2.97;2.05;;;;;12.70;101431.00;;;;5045374;28;20203;-77
2022/11/05 06:23:17;;;;;;;2.08;1.83;;;;;12.70;101436.00;;;;5047649;28;20207;-77
2022/11/05 06:25:44;;;;;;;3.40;2.15;;;;;12.70;101441.00;;;;5050451;28;20212;-77
2022/11/05 06:28:11;;;;;;;2.20;2.00;;;;;12.70;101426.00;;;;5046620;28;20203;-77
2022/11/05 06:30:38;;;;;;;3.20;1.92;;;;;12.70;101429.00;;;;5046142;28;20550;-76
2022/11/05 06:33:06;;;;;;;2.25;2.00;;;;;12.70;101430.00;;;;5056491;28;20191;-76
2022/11/05 06:35:35;;;;;;;2.10;1.90;;;;;12.70;101427.00;;;;5053099;28;20727;-76
2022/11/05 06:38:03;;;;;;;2.85;2.17;;;;;12.70;101425.00;;;;5047409;28;20223;-77
2022/11/05 06:40:30;;;;;;;6.20;2.17;;;;;12.60;101432.00;;;;5050038;28;20677;-77
2022/11/05 06:42:57;;;;;;;5.90;2.45;;;;;12.60;101431.00;;;;5050182;28;20200;-77
2022/11/05 06:45:25;;;;;;;2.50;1.83;;;;;12.60;101439.00;;;;5047529;28;20205;-77
2022/11/05 06:47:56;;;;;;;3.17;2.20;;;;;12.60;101437.00;;;;5047469;28;20200;-77
2022/11/05 06:50:24;;;;;;;2.53;2.22;;;;;12.60;101432.00;;;;5044382;28;20207;-77
2022/11/05 06:52:56;;;;;;;3.13;2.08;;;;;12.60;101442.00;;;;5047645;28;20200;-77
2022/11/05 06:55:24;;;;;;;3.60;2.83;;;;;12.60;101443.00;;;;5049727;28;20207;-77
2022/11/05 06:57:51;;;;;;;2.13;1.92;;;;;12.60;101440.00;;;;5052284;28;20218;-77
2022/11/05 07:00:19;;;;;;;3.10;1.90;;;;;12.60;101445.00;;;;5056142;28;20207;-77
2022/11/05 07:02:46;;;;;;;4.20;2.30;;;;;12.60;101448.00;;;;5046115;28;20211;-77
2022/11/05 07:05:14;;;;;;;3.92;2.58;;;;;12.60;101441.00;;;;5045161;28;20207;-77
2022/11/05 07:07:43;;;;;;;2.75;2.08;;;;;12.60;101452.00;;;;5046028;28;20199;-77
2022/11/05 07:10:14;;;;;;;3.72;2.60;;;;;12.50;101453.00;;;;5051492;28;20203;-77
2022/11/05 07:12:41;;;;;;;4.05;2.78;;;;;12.60;101451.00;;;;5049312;28;20202;-77
2022/11/05 07:15:10;;;;;;;2.55;2.35;;;;;12.50;101448.00;;;;5042944;28;20199;-77
2022/11/05 07:17:37;;;;;;;3.78;2.10;;;;;12.60;101448.00;;;;5046640;28;20202;-77
2022/11/05 07:20:07;;;;;;;2.53;2.15;;;;;12.50;101450.00;;;;5052613;28;20207;-76
2022/11/05 07:22:35;;;;;;;3.30;2.22;;;;;12.60;101453.00;;;;5050383;28;20199;-77
2022/11/05 07:25:02;;;;;;;5.72;2.55;;;;;12.60;101456.00;;;;5049626;28;20256;-76
2022/11/05 07:27:31;;;;;;;2.63;2.40;;;;;12.60;101460.00;;;;5043092;28;20206;-77
2022/11/05 07:29:58;;;;;;;3.25;2.58;;;;;12.60;101462.00;;;;5045801;28;20199;-77
2022/11/05 07:32:25;;;;;;;3.78;2.42;;;;;12.60;101453.00;;;;5047185;28;20254;-77
2022/11/05 07:34:52;;;;;;;3.90;2.33;;;;;12.60;101464.00;;;;5045703;28;20223;-77
2022/11/05 07:37:20;;;;;;;3.25;2.75;;;;;12.60;101459.00;;;;5054113;28;20198;-78
2022/11/05 07:39:47;;;;;;;3.50;2.47;;;;;12.60;101461.00;;;;5048363;28;20235;-78
2022/11/05 07:42:16;;;;;;;3.30;2.38;;;;;12.70;101459.00;;;;5049078;28;20210;-78
2022/11/05 07:44:44;;;;;;;4.10;2.20;;;;;12.70;101474.00;;;;5031434;28;20206;-78
2022/11/05 07:47:11;;;;;;;3.08;2.63;;;;;12.70;101468.00;;;;5046422;28;20200;-76
2022/11/05 07:49:39;;;;;;;6.07;2.70;;;;;12.70;101465.00;;;;5038671;28;20204;-76
2022/11/05 07:52:06;;;;;;;3.75;2.45;;;;;12.80;101466.00;;;;5048651;28;20194;-76
2022/11/05 07:54:33;;;;;;;4.03;2.78;;;;;12.80;101471.00;;;;5050422;28;20200;-76
2022/11/05 07:57:01;;;;;;;4.18;2.97;;;;;12.80;101474.00;;;;5048323;28;20198;-76
2022/11/05 07:59:29;;;;;;;4.00;3.08;;;;;12.90;101471.00;;;;5046814;28;20273;-76
2022/11/05 08:01:58;;;;;;;5.93;2.88;;;;;12.90;101474.00;;;;5047239;28;20673;-76
2022/11/05 08:04:25;;;;;;;3.17;2.50;;;;;13.00;101465.00;;;;5042128;28;20208;-76
2022/11/05 08:06:53;;;;;;;3.95;2.85;;;;;13.00;101473.00;;;;5046059;28;20567;-76
2022/11/05 08:09:20;;;;;;;3.83;3.05;;;;;13.10;101471.00;;;;5046053;28;20211;-76
2022/11/05 08:11:47;;;;;;;4.80;2.88;;;;;13.10;101474.00;;;;5059436;28;20214;-76
2022/11/05 08:14:14;;;;;;;5.05;2.97;;;;;13.20;101470.00;;;;5057753;28;20191;-76
2022/11/05 08:16:42;;;;;;;4.60;3.63;;;;;13.20;101470.00;;;;5057182;28;20203;-76
2022/11/05 08:19:11;;;;;;;4.50;3.28;;;;;13.20;101472.00;;;;5058524;28;20234;-76
2022/11/05 08:21:38;;;;;;;3.78;2.88;;;;;13.30;101472.00;;;;5066192;28;20201;-76
2022/11/05 08:24:05;;;;;;;4.63;3.35;;;;;13.40;101470.00;;;;5058689;28;20203;-76
2022/11/05 08:26:33;;;;;;;4.93;3.30;;;;;13.40;101464.00;;;;5050348;28;20192;-76
2022/11/05 08:29:00;;;;;;;3.88;3.13;;;;;13.50;101471.00;;;;5061092;28;20278;-76
2022/11/05 08:31:29;;;;;;;5.03;3.58;;;;;13.60;101476.00;;;;5059486;28;20666;-76
2022/11/05 08:33:57;;;;;;;6.38;4.05;;;;;13.60;101471.00;;;;5048872;28;20230;-76
2022/11/05 08:36:26;;;;;;;5.03;3.53;;;;;13.60;101477.00;;;;5048245;28;20200;-76
2022/11/05 08:38:53;;;;;;;5.15;3.72;;;;;13.70;101473.00;;;;5050304;28;20223;-77
2022/11/05 08:41:21;;;;;;;6.82;3.72;;;;;13.80;101477.00;;;;5050377;28;20188;-77
2022/11/05 08:43:48;;;;;;;7.13;4.25;;;;;13.80;101480.00;;;;5068607;28;20199;-77
2022/11/05 08:46:15;;;;;;;4.78;3.85;;;;;13.90;101481.00;;;;5060375;28;20196;-77
2022/11/05 08:48:43;;;;;;;6.28;3.78;;;;;14.00;101485.00;;;;5055069;28;20199;-77
2022/11/05 08:51:10;;;;;;;5.47;4.00;;;;;14.00;101489.00;;;;5056034;28;20208;-77
2022/11/05 08:53:38;;;;;;;5.10;4.05;;;;;14.10;101490.00;;;;5060666;28;20192;-77
2022/11/05 08:56:06;;;;;;;4.45;3.83;;;;;14.10;101487.00;;;;5058293;28;20198;-77
2022/11/05 08:58:33;;;;;;;6.68;4.10;;;;;14.20;101486.00;;;;5054426;28;20216;-78
2022/11/05 09:01:03;;;;;;;5.75;3.65;;;;;14.30;101486.00;;;;5036764;28;20576;-77
2022/11/05 09:03:31;;;;;;;6.75;4.18;;;;;14.40;101481.00;;;;5049981;28;20198;-78
2022/11/05 09:05:58;;;;;;;4.93;4.00;;;;;14.40;101484.00;;;;5056217;28;20202;-78
2022/11/05 09:08:25;;;;;;;6.07;4.20;;;;;14.50;101484.00;;;;5053522;28;20211;-78
2022/11/05 09:10:54;;;;;;;7.03;4.15;;;;;14.50;101484.00;;;;5045997;28;20199;-78
2022/11/05 09:13:21;;;;;;;4.53;3.80;;;;;14.60;101475.00;;;;5055089;28;20206;-78
2022/11/05 09:15:49;;;;;;;4.88;3.75;;;;;14.70;101482.00;;;;5053045;28;20206;-78
2022/11/05 09:18:17;;;;;;;6.80;4.80;;;;;14.80;101480.00;;;;5052698;28;20196;-78
2022/11/05 09:20:45;;;;;;;5.68;4.13;;;;;14.80;101488.00;;;;5050884;28;20203;-77
2022/11/05 09:23:14;;;;;;;5.88;4.40;;;;;14.90;101476.00;;;;5050902;28;20208;-77
2022/11/05 09:25:41;;;;;;;10.05;4.30;;;;;15.00;101479.00;;;;5052649;28;20795;-77
2022/11/05 09:28:12;;;;;;;5.55;4.03;;;;;15.10;101479.00;;;;5061690;28;20202;-77
2022/11/05 09:30:43;;;;;;;7.35;4.13;;;;;15.20;101474.00;;;;5048444;28;20204;-77
2022/11/05 09:33:10;;;;;;;6.63;4.53;;;;;15.30;101479.00;;;;5053149;28;20669;-77
2022/11/05 09:35:39;;;;;;;5.28;4.18;;;;;15.40;101478.00;;;;5056913;28;20203;-76
2022/11/05 09:38:06;;;;;;;10.93;4.30;;;;;15.50;101484.00;;;;5050109;28;20195;-76
2022/11/05 09:40:38;;;;;;;6.10;3.58;;;;;15.60;101481.00;;;;5058596;28;20281;-77
2022/11/05 09:43:07;;;;;;;5.00;3.65;;;;;15.70;101491.00;;;;5050175;28;20207;-76
2022/11/05 09:45:36;;;;;;;5.43;3.42;;;;;15.80;101482.00;;;;5052285;28;20206;-76
2022/11/05 09:48:09;;;;;;;3.95;3.30;;;;;15.80;101492.00;;;;5053100;28;20638;-76
2022/11/05 09:50:40;;;;;;;4.53;2.92;;;;;15.90;101491.00;;;;5053002;28;20188;-78
2022/11/05 09:53:10;;;;;;;6.60;4.32;;;;;16.00;101485.00;;;;5063814;28;20559;-77
2022/11/05 09:55:41;;;;;;;4.50;3.53;;;;;16.10;101493.00;;;;5061263;28;20192;-77
2022/11/05 09:58:16;;;;;;;4.50;3.63;;;;;16.20;101493.00;;;;5071088;28;20195;-77
2022/11/05 10:00:47;;;;;;;5.50;3.75;;;;;16.40;101494.00;;;;5070924;28;20202;-77
2022/11/05 10:03:19;;;;;;;5.95;3.28;;;;;16.60;101502.00;;;;5071435;28;20199;-77
2022/11/05 10:05:48;;;;;;;4.45;3.33;;;;;16.70;101504.00;;;;5050249;28;20196;-77
2022/11/05 10:08:20;;;;;;;6.72;3.67;;;;;16.80;101504.00;;;;5059146;28;20686;-77
2022/11/05 10:10:50;;;;;;;3.28;2.85;;;;;16.90;101505.00;;;;5065176;28;20214;-77
2022/11/05 10:13:24;;;;;;;5.00;2.40;;;;;16.90;101515.00;;;;5063053;28;21017;-77
2022/11/05 10:16:00;;;;;;;3.47;2.53;;;;;16.90;101514.00;;;;5049962;28;20206;-77
2022/11/05 10:18:32;;;;;;;5.30;2.53;;;;;17.00;101513.00;;;;5049230;28;20199;-77
2022/11/05 10:21:00;;;;;;;3.47;2.30;;;;;17.00;101512.00;;;;5058392;28;20199;-76
2022/11/05 10:23:28;;;;;;;6.28;2.65;;;;;17.00;101512.00;;;;5066188;28;20218;-77
2022/11/05 10:25:59;;;;;;;6.35;2.85;;;;;17.00;101522.00;;;;5052808;28;20202;-77
2022/11/05 10:28:29;;;;;;;3.83;2.42;;;;;17.10;101526.00;;;;5050319;28;20203;-78
2022/11/05 10:31:01;;;;;;;6.13;2.47;;;;;17.00;101521.00;;;;5050385;28;20203;-78
2022/11/05 10:33:33;;;;;;;6.85;2.63;;;;;17.00;101517.00;;;;5054775;28;20230;-77
2022/11/05 10:36:05;;;;;;;3.92;2.53;;;;;17.10;101522.00;;;;5057643;28;20202;-77
2022/11/05 10:38:33;;;;;;;3.38;1.98;;;;;17.10;101522.00;;;;5049211;28;20226;-78
2022/11/05 10:41:23;;;;;;;3.83;2.25;;;;;17.10;101521.00;;;;5052936;28;20669;-77
2022/11/05 10:43:54;;;;;;;6.60;2.30;;;;;17.20;101520.00;;;;5052755;28;20207;-77
2022/11/05 10:46:32;;;;;;;3.83;2.45;;;;;17.10;101528.00;;;;5053817;28;20206;-77
2022/11/05 10:49:17;;;;;;;4.38;2.10;;;;;17.10;101527.00;;;;5052333;28;20197;-79
2022/11/05 10:51:45;;;;;;;3.72;2.60;;;;;17.20;101520.00;;;;5062648;28;20203;-76
2022/11/05 10:54:16;;;;;;;4.07;2.50;;;;;17.20;101523.00;;;;5050005;28;20200;-76
2022/11/05 10:56:44;;;;;;;4.25;2.67;;;;;17.20;101514.00;;;;5052316;28;20195;-76
2022/11/05 10:59:22;;;;;;;4.13;2.67;;;;;17.20;101523.00;;;;5048167;28;20223;-76
2022/11/05 11:01:59;;;;;;;4.97;2.95;;;;;17.20;101521.00;;;;5053775;28;20353;-76
2022/11/05 11:04:30;;;;;;;4.55;3.42;;;;;17.20;101524.00;;;;5055315;28;20196;-77
2022/11/05 11:06:59;;;;;;;3.03;2.50;;;;;17.20;101521.00;;;;5048963;28;20196;-77
2022/11/05 11:09:28;;;;;;;5.35;3.42;;;;;17.20;101522.00;;;;5050360;28;20206;-76
2022/11/05 11:12:07;;;;;;;3.70;3.03;;;;;17.10;101525.00;;;;5051992;28;20278;-76
2022/11/05 11:14:34;;;;;;;4.07;3.33;;;;;17.20;101513.00;;;;5052168;28;20202;-76
2022/11/05 11:17:33;;;;;;;3.30;2.60;;;;;17.10;101515.00;;;;5054578;28;20273;-76
2022/11/05 11:20:24;;;;;;;3.65;2.90;;;;;17.10;101511.00;;;;4976710;28;20225;-76
2022/11/05 11:23:02;;;;;;;3.67;2.25;;;;;17.20;101521.00;;;;5047172;28;20203;-76
2022/11/05 11:25:34;;;;;;;3.03;2.45;;;;;17.30;101518.00;;;;5050566;28;20202;-77
2022/11/05 11:28:03;;;;;;;4.13;3.00;;;;;17.30;101514.00;;;;5050360;28;20199;-77
2022/11/05 11:30:32;;;;;;;7.03;2.92;;;;;17.30;101512.00;;;;5053011;28;20196;-76
2022/11/05 11:33:08;;;;;;;3.28;2.60;;;;;17.30;101515.00;;;;5060329;28;20199;-77
2022/11/05 11:35:38;;;;;;;5.35;2.42;;;;;17.40;101516.00;;;;5064057;28;20716;-76
2022/11/05 11:38:06;;;;;;;5.00;2.30;;;;;17.40;101520.00;;;;5066294;28;20195;-76
2022/11/05 11:40:37;;;;;;;4.35;3.00;;;;;17.40;101521.00;;;;5060478;28;20231;-76
2022/11/05 11:43:14;;;;;;;4.07;2.67;;;;;17.50;101528.00;;;;5068581;28;20191;-76
2022/11/05 11:45:46;;;;;;;7.13;2.95;;;;;17.40;101531.00;;;;5065081;28;20199;-77
2022/11/05 11:48:18;;;;;;;4.00;2.38;;;;;17.50;101523.00;;;;5050210;28;20211;-77
2022/11/05 11:50:47;;;;;;;3.83;2.80;;;;;17.60;101517.00;;;;5051046;28;20199;-77
2022/11/05 11:53:35;;;;;;;3.63;2.55;;;;;17.50;101518.00;;;;5056530;28;20195;-78
2022/11/05 11:56:12;;;;;;;3.60;2.53;;;;;17.70;101504.00;;;;5055205;28;20206;-77
2022/11/05 11:58:43;;;;;;;5.22;3.22;;;;;17.70;101497.00;;;;5059868;28;20844;-77
2022/11/05 12:01:44;;;;;;;6.78;3.50;;;;;17.80;101505.00;;;;5063050;28;20223;-76
2022/11/05 12:04:24;;;;;;;4.93;3.55;;;;;17.80;101500.00;;;;5050044;28;20691;-77
2022/11/05 12:07:04;;;;;;;4.00;3.40;;;;;17.80;101497.00;;;;5054800;28;20206;-76
2022/11/05 12:09:49;;;;;;;6.13;3.72;;;;;17.90;101496.00;;;;5048397;28;20203;-76
2022/11/05 12:12:19;;;;;;;4.60;2.85;;;;;17.90;101498.00;;;;5050217;28;20210;-77
2022/11/05 12:14:54;;;;;;;6.07;3.20;;;;;17.90;101501.00;;;;5059616;28;20194;-77
2022/11/05 12:17:35;;;;;;;6.45;3.35;;;;;18.00;101499.00;;;;5049936;28;20576;-77
2022/11/05 12:20:28;;;;;;;4.65;3.00;;;;;17.90;101505.00;;;;5051835;28;20223;-77
2022/11/05 12:23:24;;;;;;;3.53;2.72;;;;;18.00;101499.00;;;;5064888;28;20217;-77
2022/11/05 12:25:57;;;;;;;3.80;2.80;;;;;18.20;101497.00;;;;5052700;28;20187;-77
2022/11/05 12:28:53;;;;;;;3.65;2.60;;;;;18.20;101498.00;;;;5049544;28;20298;-78
2022/11/05 12:31:29;;;;;;;4.68;2.45;;;;;18.40;101484.00;;;;5047744;28;20207;-77
2022/11/05 12:34:08;;;;;;;2.88;2.08;;;;;18.50;101485.00;;;;5047824;28;20533;-78
2022/11/05 12:36:49;;;;;;;7.00;2.63;;;;;18.60;101489.00;;;;5057501;28;20222;-77
2022/11/05 12:39:48;;;;;;;5.88;2.58;;;;;18.60;101495.00;;;;5066452;28;20620;-77
2022/11/05 12:42:34;;;;;;;3.33;2.17;;;;;18.60;101494.00;;;;5055356;28;20207;-78
2022/11/05 12:45:04;;;;;;;3.85;2.35;;;;;18.70;101483.00;;;;5060221;28;20199;-78
2022/11/05 12:47:56;;;;;;;2.70;2.05;;;;;18.70;101482.00;;;;5066689;28;20206;-77
2022/11/05 12:50:31;;;;;;;4.43;2.70;;;;;18.70;101486.00;;;;5059765;28;20191;-77
2022/11/05 12:53:22;;;;;;;3.38;2.28;;;;;18.60;101479.00;;;;5057264;28;20199;-78
2022/11/05 12:55:51;;;;;;;5.18;2.53;;;;;18.70;101481.00;;;;5020862;28;20200;-79
2022/11/05 12:58:23;;;;;;;3.35;2.35;;;;;18.70;101474.00;;;;5047328;28;20207;-78
2022/11/05 13:00:55;;;;;;;3.35;2.15;;;;;18.60;101476.00;;;;5048214;28;20226;-78
2022/11/05 13:03:30;;;;;;;4.00;2.53;;;;;18.60;101472.00;;;;5054015;28;20578;-78
2022/11/05 13:06:02;;;;;;;4.05;2.63;;;;;18.70;101481.00;;;;5053725;28;20814;-78
2022/11/05 13:08:38;;;;;;;3.88;2.25;;;;;18.60;101473.00;;;;5062553;28;20268;-77